createdAt,value
2022-11-21T00:01:17.772Z,5.70
2022-11-21T00:03:46.053Z,5.65
2022-11-21T00:06:15.933Z,5.73
2022-11-21T00:08:43.990Z,5.72
2022-11-21T00:11:11.865Z,5.72
2022-11-21T00:13:40.174Z,5.76
2022-11-21T00:16:10.008Z,5.77
2022-11-21T00:18:38.334Z,5.74
2022-11-21T00:21:07.833Z,5.74
2022-11-21T00:23:37.088Z,5.72
2022-11-21T00:26:06.306Z,5.66
2022-11-21T00:28:34.225Z,5.71
2022-11-21T00:31:02.266Z,5.60
2022-11-21T00:33:30.162Z,5.64
2022-11-21T00:35:58.066Z,5.59
2022-11-21T00:38:25.955Z,5.56
2022-11-21T00:40:55.199Z,5.54
2022-11-21T00:43:23.084Z,5.60
2022-11-21T00:45:50.982Z,5.63
2022-11-21T00:48:18.820Z,5.61
2022-11-21T00:50:50.036Z,5.62
2022-11-21T00:53:17.956Z,5.70
2022-11-21T00:55:45.874Z,5.69
2022-11-21T00:58:15.105Z,5.70
2022-11-21T01:00:43.037Z,5.69
2022-11-21T01:03:11.019Z,5.79
2022-11-21T01:05:38.879Z,5.73
2022-11-21T01:08:07.019Z,5.79
2022-11-21T01:10:35.559Z,5.68
2022-11-21T01:13:03.677Z,5.67
2022-11-21T01:15:32.994Z,5.68
2022-11-21T01:18:00.821Z,5.64
2022-11-21T01:20:28.687Z,5.61
2022-11-21T01:22:56.555Z,5.59
2022-11-21T01:25:24.385Z,5.61
2022-11-21T01:27:52.230Z,5.53
2022-11-21T01:30:20.134Z,5.49
2022-11-21T01:32:51.057Z,5.48
2022-11-21T01:35:19.039Z,5.47
2022-11-21T01:37:49.112Z,5.47
2022-11-21T01:40:17.603Z,5.49
2022-11-21T01:42:55.739Z,5.47
2022-11-21T01:46:03.397Z,5.54
2022-11-21T01:48:38.957Z,5.51
2022-11-21T01:51:11.172Z,5.49
2022-11-21T01:53:41.573Z,5.48
2022-11-21T01:56:10.705Z,5.42
2022-11-21T01:58:41.081Z,5.36
2022-11-21T02:01:09.395Z,5.38
2022-11-21T02:03:39.957Z,5.40
2022-11-21T02:06:11.046Z,5.34
2022-11-21T02:08:39.220Z,5.34
2022-11-21T02:11:14.631Z,5.36
2022-11-21T02:13:42.524Z,5.40
2022-11-21T02:16:10.405Z,5.39
2022-11-21T02:18:39.738Z,5.41
2022-11-21T02:21:18.895Z,5.45
2022-11-21T02:23:56.385Z,5.54
2022-11-21T02:26:29.561Z,5.57
2022-11-21T02:28:58.092Z,5.57
2022-11-21T02:31:26.014Z,5.52
2022-11-21T02:33:53.862Z,5.45
2022-11-21T02:36:42.573Z,5.46
2022-11-21T02:39:15.679Z,5.50
2022-11-21T02:41:52.751Z,5.54
2022-11-21T02:44:25.804Z,5.55
2022-11-21T02:46:54.130Z,5.59
2022-11-21T02:49:30.651Z,5.65
2022-11-21T02:51:58.523Z,5.67
2022-11-21T02:54:26.643Z,5.68
2022-11-21T02:56:57.541Z,5.68
2022-11-21T02:59:25.460Z,5.84
2022-11-21T03:01:53.374Z,5.84
2022-11-21T03:04:21.233Z,5.84
2022-11-21T03:06:49.255Z,5.87
2022-11-21T03:09:17.163Z,5.88
2022-11-21T03:11:45.035Z,5.88
2022-11-21T03:14:14.288Z,5.95
2022-11-21T03:16:42.284Z,5.95
2022-11-21T03:19:10.344Z,5.92
2022-11-21T03:21:38.226Z,5.94
2022-11-21T03:24:07.039Z,5.87
2022-11-21T03:26:34.917Z,5.93
2022-11-21T03:29:03.128Z,5.95
2022-11-21T03:31:32.441Z,6.02
2022-11-21T03:34:00.323Z,6.00
2022-11-21T03:36:28.412Z,6.01
2022-11-21T03:38:57.442Z,5.99
2022-11-21T03:41:31.243Z,6.00
2022-11-21T03:44:00.147Z,5.96
2022-11-21T03:46:28.623Z,5.92
2022-11-21T03:48:58.283Z,6.02
2022-11-21T03:51:26.443Z,6.02
2022-11-21T03:53:55.219Z,6.00
2022-11-21T03:56:23.239Z,6.00
2022-11-21T03:58:51.104Z,5.91
2022-11-21T04:01:19.475Z,6.01
2022-11-21T04:03:48.191Z,6.05
2022-11-21T04:06:19.589Z,6.03
2022-11-21T04:08:47.940Z,6.15
2022-11-21T04:11:15.799Z,6.17
2022-11-21T04:13:43.861Z,6.18
2022-11-21T04:16:11.767Z,6.12
2022-11-21T04:18:39.734Z,6.11
2022-11-21T04:21:09.352Z,6.02
2022-11-21T04:23:38.691Z,5.98
2022-11-21T04:26:06.729Z,6.08
2022-11-21T04:28:34.561Z,6.08
2022-11-21T04:31:10.480Z,6.10
2022-11-21T04:33:39.591Z,6.07
2022-11-21T04:36:08.217Z,6.08
2022-11-21T04:38:36.257Z,6.07
2022-11-21T04:41:06.124Z,6.08
2022-11-21T04:43:34.064Z,6.06
2022-11-21T04:46:02.045Z,6.06
2022-11-21T04:48:29.865Z,6.01
2022-11-21T04:50:57.734Z,6.06
2022-11-21T04:53:25.632Z,6.09
2022-11-21T04:55:53.606Z,6.15
2022-11-21T04:58:22.896Z,6.17
2022-11-21T05:00:50.825Z,6.20
2022-11-21T05:03:18.684Z,6.25
2022-11-21T05:05:46.772Z,6.27
2022-11-21T05:08:14.609Z,6.33
2022-11-21T05:10:59.865Z,6.27
2022-11-21T05:13:29.062Z,6.33
2022-11-21T05:15:59.856Z,6.33
2022-11-21T05:18:27.677Z,6.34
2022-11-21T05:20:55.948Z,6.33
2022-11-21T05:23:23.944Z,6.30
2022-11-21T05:25:51.824Z,6.35
2022-11-21T05:28:19.701Z,6.29
2022-11-21T05:30:48.995Z,6.24
2022-11-21T05:33:16.925Z,6.31
2022-11-21T05:35:44.902Z,6.25
2022-11-21T05:38:13.060Z,6.27
2022-11-21T05:40:41.229Z,6.31
2022-11-21T05:43:28.702Z,6.29
2022-11-21T05:45:57.981Z,6.30
2022-11-21T05:48:25.888Z,6.28
2022-11-21T05:50:53.765Z,6.16
2022-11-21T05:53:21.947Z,6.21
2022-11-21T05:55:49.899Z,6.09
2022-11-21T05:58:17.830Z,6.04
2022-11-21T06:00:45.832Z,6.03
2022-11-21T06:03:30.847Z,5.99
2022-11-21T06:06:06.042Z,6.01
2022-11-21T06:08:36.533Z,5.99
2022-11-21T06:11:05.990Z,6.01
2022-11-21T06:13:34.772Z,5.97
2022-11-21T06:16:06.387Z,5.99
2022-11-21T06:18:38.020Z,6.02
2022-11-21T06:21:08.690Z,6.03
2022-11-21T06:23:37.490Z,6.03
2022-11-21T06:26:07.343Z,6.02
2022-11-21T06:28:37.359Z,6.01
2022-11-21T06:31:05.912Z,6.16
2022-11-21T06:33:35.898Z,6.18
2022-11-21T06:36:04.502Z,6.11
2022-11-21T06:38:32.402Z,6.07
2022-11-21T06:41:00.416Z,6.08
2022-11-21T06:43:28.581Z,6.12
2022-11-21T06:45:57.023Z,6.03
2022-11-21T06:48:24.905Z,6.07
2022-11-21T06:50:54.129Z,6.10
2022-11-21T06:53:22.056Z,6.08
2022-11-21T06:55:49.901Z,6.09
2022-11-21T06:58:17.730Z,6.13
2022-11-21T07:00:46.140Z,6.01
2022-11-21T07:03:14.056Z,6.02
2022-11-21T07:05:41.958Z,5.97
2022-11-21T07:08:13.438Z,5.99
2022-11-21T07:10:57.231Z,5.90
2022-11-21T07:13:30.125Z,5.88
2022-11-21T07:16:03.520Z,5.90
2022-11-21T07:18:31.398Z,5.88
2022-11-21T07:21:00.459Z,5.87
2022-11-21T07:23:30.502Z,5.88
2022-11-21T07:26:01.957Z,5.89
2022-11-21T07:28:30.008Z,5.94
2022-11-21T07:30:58.191Z,5.98
2022-11-21T07:33:26.600Z,5.89
2022-11-21T07:35:56.548Z,5.84
2022-11-21T07:38:24.527Z,5.99
2022-11-21T07:40:54.131Z,5.85
2022-11-21T07:43:22.000Z,5.83
2022-11-21T07:45:49.873Z,5.74
2022-11-21T07:48:17.741Z,5.75
2022-11-21T07:50:45.617Z,5.78
2022-11-21T07:53:13.592Z,5.77
2022-11-21T07:55:41.563Z,5.81
2022-11-21T07:58:12.967Z,5.87
2022-11-21T08:00:43.427Z,5.90
2022-11-21T08:03:13.058Z,5.96
2022-11-21T08:05:44.331Z,5.91
2022-11-21T08:08:13.805Z,5.92
2022-11-21T08:10:43.358Z,5.93
2022-11-21T08:13:13.455Z,5.90
2022-11-21T08:15:41.974Z,5.84
2022-11-21T08:18:10.789Z,5.93
2022-11-21T08:20:38.973Z,6.01
2022-11-21T08:23:07.722Z,6.01
2022-11-21T08:25:37.746Z,6.03
2022-11-21T08:28:06.697Z,6.05
2022-11-21T08:30:36.912Z,6.06
2022-11-21T08:33:05.699Z,6.10
2022-11-21T08:35:33.889Z,6.08
2022-11-21T08:38:02.894Z,6.09
2022-11-21T08:40:32.338Z,6.08
2022-11-21T08:43:00.733Z,6.16
2022-11-21T08:45:29.114Z,6.17
2022-11-21T08:47:59.265Z,6.15
2022-11-21T08:50:28.553Z,6.22
2022-11-21T08:53:01.338Z,6.15
2022-11-21T08:55:29.413Z,6.21
2022-11-21T08:57:57.258Z,6.16
2022-11-21T09:00:25.149Z,6.17
2022-11-21T09:02:53.018Z,6.10
2022-11-21T09:05:22.319Z,6.13
2022-11-21T09:07:56.489Z,6.15
2022-11-21T09:10:24.434Z,6.22
2022-11-21T09:12:52.275Z,6.19
2022-11-21T09:15:37.046Z,6.23
2022-11-21T09:18:07.979Z,6.28
2022-11-21T09:20:43.064Z,6.28
2022-11-21T09:23:12.463Z,6.33
2022-11-21T09:25:40.970Z,6.38
2022-11-21T09:28:10.541Z,6.44
2022-11-21T09:30:38.982Z,6.35
2022-11-21T09:33:08.246Z,6.34
2022-11-21T09:35:37.472Z,6.59
2022-11-21T09:38:05.600Z,6.47
2022-11-21T09:40:35.278Z,6.67
2022-11-21T09:43:25.875Z,6.71
2022-11-21T09:45:57.828Z,6.66
2022-11-21T09:48:32.751Z,6.65
2022-11-21T09:51:06.948Z,7.29
2022-11-21T09:53:37.642Z,7.93
2022-11-21T09:56:08.462Z,7.82
2022-11-21T09:58:41.235Z,7.77
2022-11-21T10:01:13.338Z,7.87
2022-11-21T10:03:47.317Z,7.80
2022-11-21T10:06:20.953Z,7.69
2022-11-21T10:08:58.847Z,7.52
2022-11-21T10:11:59.775Z,7.52
2022-11-21T10:14:41.264Z,7.33
2022-11-21T10:17:19.457Z,7.19
2022-11-21T10:20:10.553Z,7.08
2022-11-21T10:22:55.170Z,7.06
2022-11-21T10:25:27.464Z,6.87
2022-11-21T10:27:59.370Z,6.82
2022-11-21T10:30:27.518Z,6.85
2022-11-21T10:32:58.234Z,6.99
2022-11-21T10:35:30.446Z,6.88
2022-11-21T10:38:02.857Z,6.87
2022-11-21T10:40:36.937Z,6.89
2022-11-21T10:43:23.760Z,6.86
2022-11-21T10:45:52.221Z,6.74
2022-11-21T10:48:20.350Z,6.67
2022-11-21T10:51:07.024Z,6.69
2022-11-21T10:53:53.836Z,6.33
2022-11-21T10:56:23.924Z,6.18
2022-11-21T10:58:54.068Z,6.24
2022-11-21T11:01:24.422Z,6.52
2022-11-21T11:04:32.147Z,6.96
2022-11-21T11:07:22.382Z,7.52
2022-11-21T11:09:53.531Z,8.16
2022-11-21T11:12:47.053Z,8.37
2022-11-21T11:15:23.432Z,8.54
2022-11-21T11:17:54.412Z,9.47
2022-11-21T11:20:38.135Z,9.79
2022-11-21T11:23:27.183Z,10.05
2022-11-21T11:25:58.339Z,10.56
2022-11-21T11:28:26.463Z,10.90
2022-11-21T11:30:56.067Z,10.24
2022-11-21T11:33:36.012Z,9.83
2022-11-21T11:36:15.202Z,9.50
2022-11-21T11:38:47.220Z,8.86
2022-11-21T11:41:27.800Z,8.52
2022-11-21T11:44:22.512Z,8.67
2022-11-21T11:47:19.829Z,8.77
2022-11-21T11:50:10.890Z,8.54
2022-11-21T11:52:45.412Z,8.66
2022-11-21T11:55:19.948Z,9.06
2022-11-21T11:57:53.985Z,8.61
2022-11-21T12:00:28.963Z,9.26
2022-11-21T12:03:04.930Z,9.41
2022-11-21T12:05:33.399Z,9.28
2022-11-21T12:11:25.019Z,11.72
2022-11-21T12:13:58.503Z,11.45
2022-11-21T12:16:28.132Z,12.62
2022-11-21T12:19:01.177Z,11.28
2022-11-21T12:21:29.678Z,13.25
2022-11-21T12:23:59.150Z,12.59
2022-11-21T12:26:38.870Z,12.12
2022-11-21T12:29:18.411Z,9.84
2022-11-21T12:32:02.186Z,9.67
2022-11-21T12:34:42.877Z,9.33
2022-11-21T12:37:22.012Z,8.88
2022-11-21T12:40:00.637Z,8.62
2022-11-21T12:42:51.610Z,8.54
2022-11-21T12:45:32.172Z,8.30
2022-11-21T12:48:38.425Z,8.14
2022-11-21T12:51:58.961Z,8.20
2022-11-21T12:54:49.600Z,10.14
2022-11-21T12:57:19.111Z,9.89
2022-11-21T12:59:58.708Z,9.81
2022-11-21T13:02:35.852Z,10.02
2022-11-21T13:05:05.903Z,11.16
2022-11-21T13:07:34.579Z,12.53
2022-11-21T13:10:05.986Z,12.55
2022-11-21T13:12:44.337Z,11.24
2022-11-21T13:15:21.994Z,9.75
2022-11-21T13:17:56.934Z,9.66
2022-11-21T13:20:32.810Z,10.41
2022-11-21T13:23:06.555Z,10.86
2022-11-21T13:25:40.567Z,11.00
2022-11-21T13:28:30.895Z,11.36
2022-11-21T13:31:00.954Z,13.14
2022-11-21T13:33:53.055Z,13.13
2022-11-21T13:36:43.655Z,13.71
2022-11-21T13:39:34.199Z,13.02
2022-11-21T13:42:24.424Z,11.70
2022-11-21T13:44:52.731Z,11.21
2022-11-21T13:48:00.486Z,9.75
2022-11-21T13:50:43.315Z,9.72
2022-11-21T13:53:30.074Z,9.13
2022-11-21T13:56:00.659Z,9.07
2022-11-21T13:58:55.713Z,8.83
2022-11-21T14:01:59.982Z,8.74
2022-11-21T14:04:53.143Z,8.38
2022-11-21T14:07:29.311Z,8.13
2022-11-21T14:09:58.620Z,7.85
2022-11-21T14:12:34.414Z,8.05
2022-11-21T14:15:21.836Z,7.87
2022-11-21T14:17:51.218Z,7.85
2022-11-21T14:20:22.979Z,7.74
2022-11-21T14:23:01.321Z,7.61
2022-11-21T14:25:36.755Z,7.70
2022-11-21T14:28:08.241Z,7.52
2022-11-21T14:30:38.737Z,7.39
2022-11-21T14:33:33.278Z,7.29
2022-11-21T14:36:04.674Z,7.26
2022-11-21T14:38:36.598Z,7.29
2022-11-21T14:41:24.798Z,7.18
2022-11-21T14:44:03.183Z,6.98
2022-11-21T14:46:32.792Z,6.86
2022-11-21T14:49:19.516Z,6.86
2022-11-21T14:51:50.564Z,6.68
2022-11-21T14:54:21.673Z,6.68
2022-11-21T14:56:55.582Z,6.65
2022-11-21T14:59:26.295Z,6.72
2022-11-21T15:02:00.632Z,6.54
2022-11-21T15:04:31.886Z,6.48
2022-11-21T15:07:00.710Z,6.38
2022-11-21T15:10:26.632Z,6.29
2022-11-21T15:12:26.725Z,6.07
2022-11-21T15:14:58.739Z,5.97
2022-11-21T15:17:28.474Z,5.97
2022-11-21T15:20:18.322Z,5.94
2022-11-21T15:22:48.109Z,5.82
2022-11-21T15:25:20.438Z,5.70
2022-11-21T15:27:49.098Z,5.62
2022-11-21T15:30:24.718Z,5.53
2022-11-21T15:33:04.552Z,5.56
2022-11-21T15:35:45.348Z,5.36
2022-11-21T15:38:18.407Z,5.33
2022-11-21T15:41:27.919Z,5.31
2022-11-21T15:43:56.991Z,5.28
2022-11-21T15:46:27.088Z,5.31
2022-11-21T15:48:57.026Z,5.21
2022-11-21T15:51:51.462Z,5.17
2022-11-21T15:54:17.147Z,5.08
2022-11-21T15:56:47.211Z,4.99
2022-11-21T15:59:16.141Z,4.81
2022-11-21T16:01:44.207Z,4.73
2022-11-21T16:04:13.334Z,4.86
2022-11-21T16:06:41.387Z,4.62
2022-11-21T16:09:09.228Z,4.56
2022-11-21T16:11:39.278Z,4.54
2022-11-21T16:14:10.081Z,4.52
2022-11-21T16:16:43.257Z,4.48
2022-11-21T16:19:12.782Z,4.30
2022-11-21T16:21:41.041Z,4.22
2022-11-21T16:24:09.635Z,4.11
2022-11-21T16:26:37.950Z,4.17
2022-11-21T16:29:06.420Z,4.16
2022-11-21T16:31:35.836Z,4.06
2022-11-21T16:34:03.747Z,3.96
2022-11-21T16:36:33.188Z,3.88
2022-11-21T16:39:08.802Z,3.93
2022-11-21T16:41:37.006Z,3.81
2022-11-21T16:44:05.190Z,3.74
2022-11-21T16:46:33.032Z,3.72
2022-11-21T16:49:04.408Z,3.78
2022-11-21T16:51:32.238Z,3.79
2022-11-21T16:54:04.385Z,3.71
2022-11-21T16:56:36.327Z,3.81
2022-11-21T16:59:04.506Z,3.73
2022-11-21T17:01:32.548Z,3.72
2022-11-21T17:04:02.256Z,3.74
2022-11-21T17:06:32.101Z,3.65
2022-11-21T17:09:01.052Z,3.51
2022-11-21T17:11:31.275Z,3.46
2022-11-21T17:14:02.270Z,3.30
2022-11-21T17:16:30.617Z,3.27
2022-11-21T17:18:59.975Z,3.26
2022-11-21T17:21:30.336Z,3.21
2022-11-21T17:23:59.155Z,3.19
2022-11-21T17:26:28.862Z,3.19
2022-11-21T17:28:58.748Z,3.18
2022-11-21T17:31:28.270Z,3.09
2022-11-21T17:33:57.645Z,3.06
2022-11-21T17:36:28.013Z,3.05
2022-11-21T17:38:57.463Z,3.05
2022-11-21T17:41:26.357Z,3.04
2022-11-21T17:43:58.597Z,3.01
2022-11-21T17:46:28.428Z,2.88
2022-11-21T17:48:58.829Z,2.86
2022-11-21T17:51:29.944Z,2.80
2022-11-21T17:53:59.593Z,2.68
2022-11-21T17:56:29.345Z,2.71
2022-11-21T17:58:57.836Z,2.82
2022-11-21T18:01:25.950Z,2.74
2022-11-21T18:03:56.870Z,2.72
2022-11-21T18:06:25.278Z,2.84
2022-11-21T18:08:53.401Z,2.84
2022-11-21T18:11:23.307Z,2.76
2022-11-21T18:13:51.986Z,2.82
2022-11-21T18:16:21.883Z,2.91
2022-11-21T18:18:50.487Z,2.82
2022-11-21T18:21:20.312Z,2.81
2022-11-21T18:23:48.192Z,2.84
2022-11-21T18:26:17.527Z,2.89
2022-11-21T18:28:46.961Z,2.91
2022-11-21T18:31:16.686Z,2.86
2022-11-21T18:33:45.336Z,2.90
2022-11-21T18:36:13.728Z,2.90
2022-11-21T18:38:56.557Z,2.92
2022-11-21T18:41:31.887Z,2.95
2022-11-21T18:44:02.513Z,3.02
2022-11-21T18:46:31.508Z,3.02
2022-11-21T18:49:05.335Z,3.05
2022-11-21T18:51:35.441Z,3.02
2022-11-21T18:54:07.444Z,3.04
2022-11-21T18:56:35.841Z,3.12
2022-11-21T18:59:06.856Z,3.18
2022-11-21T19:01:36.814Z,3.06
2022-11-21T19:04:05.439Z,3.12
2022-11-21T19:06:33.606Z,3.20
2022-11-21T19:09:01.527Z,3.12
2022-11-21T19:11:30.914Z,3.10
2022-11-21T19:14:00.563Z,3.15
2022-11-21T19:16:34.057Z,3.15
2022-11-21T19:21:52.934Z,3.16
2022-11-21T19:24:20.903Z,3.26
2022-11-21T19:26:50.508Z,3.19
2022-11-21T19:29:19.220Z,3.13
2022-11-21T19:31:48.544Z,3.21
2022-11-21T19:34:16.971Z,3.30
2022-11-21T19:36:45.705Z,3.33
2022-11-21T19:39:14.117Z,3.26
2022-11-21T19:41:42.471Z,3.19
2022-11-21T19:44:11.506Z,3.11
2022-11-21T19:46:40.402Z,3.08
2022-11-21T19:49:11.509Z,3.00
2022-11-21T19:51:41.833Z,3.08
2022-11-21T19:54:12.283Z,3.05
2022-11-21T19:56:40.636Z,3.09
2022-11-21T19:59:11.152Z,3.06
2022-11-21T20:01:39.728Z,3.07
2022-11-21T20:04:09.288Z,3.03
2022-11-21T20:06:40.043Z,3.07
2022-11-21T20:09:09.862Z,3.25
2022-11-21T20:11:39.509Z,3.37
2022-11-21T20:14:08.234Z,3.18
2022-11-21T20:16:37.757Z,3.22
2022-11-21T20:19:07.692Z,3.25
2022-11-21T20:21:37.847Z,3.20
2022-11-21T20:24:06.552Z,3.15
2022-11-21T20:26:35.377Z,3.17
2022-11-21T20:29:04.175Z,3.23
2022-11-21T20:31:33.736Z,3.22
2022-11-21T20:34:04.454Z,3.16
2022-11-21T20:36:36.629Z,3.17
2022-11-21T20:39:08.215Z,3.37
2022-11-21T20:41:37.431Z,3.35
2022-11-21T20:46:55.005Z,3.28
2022-11-21T20:49:22.826Z,3.30
2022-11-21T20:54:41.005Z,3.34
2022-11-21T20:57:14.550Z,3.43
2022-11-21T20:59:43.289Z,3.42
2022-11-21T21:02:14.027Z,3.43
2022-11-21T21:04:42.655Z,3.45
2022-11-21T21:07:11.023Z,3.47
2022-11-21T21:09:40.588Z,3.44
2022-11-21T21:12:08.767Z,3.46
2022-11-21T21:14:36.689Z,3.55
2022-11-21T21:17:04.643Z,3.55
2022-11-21T21:19:32.764Z,3.59
2022-11-21T21:22:04.170Z,3.63
2022-11-21T21:24:32.053Z,3.61
2022-11-21T21:27:01.319Z,3.57
2022-11-21T21:29:29.455Z,3.71
2022-11-21T21:31:57.686Z,3.69
2022-11-21T21:34:25.724Z,3.59
2022-11-21T21:36:53.602Z,3.54
2022-11-21T21:39:21.476Z,3.54
2022-11-21T21:41:49.293Z,3.50
2022-11-21T21:44:18.968Z,3.57
2022-11-21T21:46:46.840Z,3.55
2022-11-21T21:49:14.819Z,3.54
2022-11-21T21:51:43.067Z,3.48
2022-11-21T21:54:19.123Z,3.49
2022-11-21T21:56:47.740Z,3.46
2022-11-21T21:59:18.213Z,3.46
2022-11-21T22:01:47.682Z,3.52
2022-11-21T22:04:15.734Z,3.53
2022-11-21T22:06:43.558Z,3.48
2022-11-21T22:09:11.649Z,3.52
2022-11-21T22:11:39.931Z,3.57
2022-11-21T22:14:11.571Z,3.62
2022-11-21T22:16:39.771Z,3.58
2022-11-21T22:19:09.627Z,3.52
2022-11-21T22:21:38.928Z,3.59
2022-11-21T22:24:28.485Z,3.54
2022-11-21T22:26:56.900Z,3.50
2022-11-21T22:29:24.796Z,3.53
2022-11-21T22:31:52.795Z,3.62
2022-11-21T22:34:22.430Z,3.59
2022-11-21T22:36:50.331Z,3.63
2022-11-21T22:39:18.427Z,3.52
2022-11-21T22:41:46.623Z,3.60
2022-11-21T22:44:14.653Z,3.58
2022-11-21T22:46:42.507Z,3.64
2022-11-21T22:49:10.391Z,3.60
2022-11-21T22:51:39.622Z,3.55
2022-11-21T22:54:07.542Z,3.74
2022-11-21T22:56:35.490Z,3.70
2022-11-21T22:59:03.335Z,3.65
2022-11-21T23:01:33.795Z,3.71
2022-11-21T23:04:01.663Z,3.66
2022-11-21T23:06:29.524Z,3.69
2022-11-21T23:08:59.291Z,3.67
2022-11-21T23:11:28.626Z,3.65
2022-11-21T23:13:57.414Z,3.72
2022-11-21T23:16:25.737Z,3.73
2022-11-21T23:18:54.214Z,3.64
2022-11-21T23:21:22.564Z,3.54
2022-11-21T23:23:50.468Z,3.66
2022-11-21T23:26:20.361Z,3.72
2022-11-21T23:28:48.548Z,3.68
2022-11-21T23:31:16.624Z,3.62
2022-11-21T23:33:44.508Z,3.79
2022-11-21T23:36:12.471Z,3.76
2022-11-21T23:38:40.352Z,3.70
2022-11-21T23:41:08.245Z,3.61
2022-11-21T23:43:37.559Z,3.61
2022-11-21T23:46:05.695Z,3.63
2022-11-21T23:48:33.508Z,3.64
2022-11-21T23:51:01.386Z,3.66
2022-11-21T23:53:29.347Z,3.63
2022-11-21T23:55:57.257Z,3.67
2022-11-21T23:58:25.098Z,3.69
